Terminal Aerodrome Forecast
Issued by NWS

Home | Current Version | Previous Version | Text Only | Print | Product List | Glossary On
Versions: 1 2 3 4 5 6 7 8 9 10 11 12 13 14 15 16 17 18 19
000
FTUS46 KOTX 041140
TAFPUW
TAF
KPUW 041140Z 0412/0512 24014G20KT P6SM -RA SCT025 OVC035
     FM041700 26020G27KT P6SM -RA BKN030 OVC060
     FM041900 27022G32KT P6SM SCT040 BKN100
     FM050000 27016G24KT P6SM SCT070
     FM050300 26011KT P6SM SCT120=

USA.gov is the U.S. government's official web portal to all federal, state and local government web resources and services.